sensor_id;sensor_type;location;lat;lon;timestamp;P1;durP1;ratioP1;P2;durP2;ratioP2
29402;SDS011;16382;59.942;30.472;2023-03-14T00:00:32;7.78;;;3.22;;
29402;SDS011;16382;59.942;30.472;2023-03-14T00:03:00;5.78;;;3.28;;
29402;SDS011;16382;59.942;30.472;2023-03-14T00:05:27;4.75;;;2.67;;
29402;SDS011;16382;59.942;30.472;2023-03-14T00:07:57;4.78;;;3.13;;
29402;SDS011;16382;59.942;30.472;2023-03-14T00:10:24;3.80;;;3.38;;
29402;SDS011;16382;59.942;30.472;2023-03-14T00:12:52;6.20;;;2.85;;
29402;SDS011;16382;59.942;30.472;2023-03-14T00:15:19;5.03;;;3.45;;
29402;SDS011;16382;59.942;30.472;2023-03-14T00:17:47;5.63;;;3.00;;
29402;SDS011;16382;59.942;30.472;2023-03-14T00:20:14;10.55;;;4.53;;
29402;SDS011;16382;59.942;30.472;2023-03-14T00:22:42;6.82;;;3.60;;
29402;SDS011;16382;59.942;30.472;2023-03-14T00:25:11;3.80;;;3.08;;
29402;SDS011;16382;59.942;30.472;2023-03-14T00:27:39;5.38;;;3.40;;
29402;SDS011;16382;59.942;30.472;2023-03-14T00:30:07;2.60;;;2.35;;
29402;SDS011;16382;59.942;30.472;2023-03-14T00:32:36;6.05;;;3.22;;
29402;SDS011;16382;59.942;30.472;2023-03-14T00:35:04;7.15;;;3.53;;
29402;SDS011;16382;59.942;30.472;2023-03-14T00:37:32;4.50;;;3.13;;
29402;SDS011;16382;59.942;30.472;2023-03-14T00:39:59;4.22;;;2.80;;
29402;SDS011;16382;59.942;30.472;2023-03-14T00:42:33;3.75;;;2.90;;
29402;SDS011;16382;59.942;30.472;2023-03-14T00:45:01;6.50;;;3.13;;
29402;SDS011;16382;59.942;30.472;2023-03-14T00:47:29;5.25;;;3.40;;
29402;SDS011;16382;59.942;30.472;2023-03-14T00:49:58;3.40;;;3.10;;
29402;SDS011;16382;59.942;30.472;2023-03-14T00:52:28;3.85;;;2.67;;
29402;SDS011;16382;59.942;30.472;2023-03-14T00:54:55;2.80;;;2.53;;
29402;SDS011;16382;59.942;30.472;2023-03-14T00:57:23;3.83;;;3.13;;
29402;SDS011;16382;59.942;30.472;2023-03-14T00:59:52;3.33;;;2.95;;
29402;SDS011;16382;59.942;30.472;2023-03-14T01:02:19;7.30;;;3.83;;
29402;SDS011;16382;59.942;30.472;2023-03-14T01:04:48;4.93;;;3.45;;
29402;SDS011;16382;59.942;30.472;2023-03-14T01:07:15;5.10;;;2.95;;
29402;SDS011;16382;59.942;30.472;2023-03-14T01:09:43;4.25;;;3.08;;
29402;SDS011;16382;59.942;30.472;2023-03-14T01:12:11;6.65;;;3.35;;
29402;SDS011;16382;59.942;30.472;2023-03-14T01:14:41;3.53;;;2.80;;
29402;SDS011;16382;59.942;30.472;2023-03-14T01:17:10;8.23;;;3.05;;
29402;SDS011;16382;59.942;30.472;2023-03-14T01:19:37;7.15;;;3.40;;
29402;SDS011;16382;59.942;30.472;2023-03-14T01:22:05;6.63;;;3.38;;
29402;SDS011;16382;59.942;30.472;2023-03-14T01:24:32;5.15;;;3.20;;
29402;SDS011;16382;59.942;30.472;2023-03-14T01:26:59;9.20;;;3.50;;
29402;SDS011;16382;59.942;30.472;2023-03-14T01:29:27;5.05;;;2.92;;
29402;SDS011;16382;59.942;30.472;2023-03-14T01:31:56;6.90;;;3.90;;
29402;SDS011;16382;59.942;30.472;2023-03-14T01:34:25;6.50;;;2.85;;
29402;SDS011;16382;59.942;30.472;2023-03-14T01:36:53;5.43;;;3.17;;
29402;SDS011;16382;59.942;30.472;2023-03-14T01:39:20;4.82;;;2.30;;
29402;SDS011;16382;59.942;30.472;2023-03-14T01:41:48;4.93;;;2.28;;
29402;SDS011;16382;59.942;30.472;2023-03-14T01:44:15;2.80;;;2.55;;
29402;SDS011;16382;59.942;30.472;2023-03-14T01:46:43;5.93;;;2.67;;
29402;SDS011;16382;59.942;30.472;2023-03-14T01:49:17;2.80;;;2.22;;
29402;SDS011;16382;59.942;30.472;2023-03-14T01:52:03;3.05;;;2.20;;
29402;SDS011;16382;59.942;30.472;2023-03-14T01:54:36;3.10;;;2.20;;
29402;SDS011;16382;59.942;30.472;2023-03-14T01:57:07;1.70;;;1.60;;
29402;SDS011;16382;59.942;30.472;2023-03-14T01:59:39;1.50;;;1.40;;
29402;SDS011;16382;59.942;30.472;2023-03-14T02:02:10;2.05;;;1.70;;
29402;SDS011;16382;59.942;30.472;2023-03-14T02:04:39;2.65;;;1.75;;
29402;SDS011;16382;59.942;30.472;2023-03-14T02:07:12;4.13;;;1.55;;
29402;SDS011;16382;59.942;30.472;2023-03-14T02:12:24;1.45;;;1.35;;
29402;SDS011;16382;59.942;30.472;2023-03-14T02:18:10;1.10;;;1.00;;
29402;SDS011;16382;59.942;30.472;2023-03-14T02:20:47;1.73;;;1.63;;
29402;SDS011;16382;59.942;30.472;2023-03-14T02:23:25;2.53;;;1.70;;
29402;SDS011;16382;59.942;30.472;2023-03-14T02:26:04;1.30;;;1.20;;
29402;SDS011;16382;59.942;30.472;2023-03-14T02:28:39;5.25;;;2.33;;
29402;SDS011;16382;59.942;30.472;2023-03-14T02:31:06;1.95;;;1.20;;
29402;SDS011;16382;59.942;30.472;2023-03-14T02:33:35;2.15;;;1.27;;
29402;SDS011;16382;59.942;30.472;2023-03-14T02:36:04;1.33;;;1.13;;
29402;SDS011;16382;59.942;30.472;2023-03-14T02:38:36;1.50;;;1.40;;
29402;SDS011;16382;59.942;30.472;2023-03-14T02:41:10;2.78;;;1.20;;
29402;SDS011;16382;59.942;30.472;2023-03-14T02:43:44;2.15;;;1.40;;
29402;SDS011;16382;59.942;30.472;2023-03-14T02:46:13;1.35;;;1.25;;
29402;SDS011;16382;59.942;30.472;2023-03-14T02:48:45;1.63;;;1.40;;
29402;SDS011;16382;59.942;30.472;2023-03-14T02:51:16;2.53;;;1.48;;
29402;SDS011;16382;59.942;30.472;2023-03-14T02:53:47;2.17;;;1.63;;
29402;SDS011;16382;59.942;30.472;2023-03-14T02:56:14;1.42;;;1.33;;
29402;SDS011;16382;59.942;30.472;2023-03-14T02:58:44;2.67;;;1.60;;
29402;SDS011;16382;59.942;30.472;2023-03-14T03:01:38;1.58;;;1.40;;
29402;SDS011;16382;59.942;30.472;2023-03-14T03:04:07;3.35;;;1.40;;
29402;SDS011;16382;59.942;30.472;2023-03-14T03:06:34;2.00;;;1.90;;
29402;SDS011;16382;59.942;30.472;2023-03-14T03:09:02;1.70;;;1.60;;
29402;SDS011;16382;59.942;30.472;2023-03-14T03:11:29;2.33;;;1.85;;
29402;SDS011;16382;59.942;30.472;2023-03-14T03:14:00;3.90;;;1.65;;
29402;SDS011;16382;59.942;30.472;2023-03-14T03:16:28;2.63;;;1.85;;
29402;SDS011;16382;59.942;30.472;2023-03-14T03:18:55;3.30;;;1.40;;
29402;SDS011;16382;59.942;30.472;2023-03-14T03:21:23;2.03;;;1.73;;
29402;SDS011;16382;59.942;30.472;2023-03-14T03:23:50;2.88;;;1.80;;
29402;SDS011;16382;59.942;30.472;2023-03-14T03:26:18;2.13;;;1.50;;
29402;SDS011;16382;59.942;30.472;2023-03-14T03:28:45;1.90;;;1.70;;
29402;SDS011;16382;59.942;30.472;2023-03-14T03:31:16;2.15;;;1.85;;
29402;SDS011;16382;59.942;30.472;2023-03-14T03:33:44;3.40;;;1.80;;
29402;SDS011;16382;59.942;30.472;2023-03-14T03:36:12;1.92;;;1.63;;
29402;SDS011;16382;59.942;30.472;2023-03-14T03:38:39;4.68;;;1.95;;
29402;SDS011;16382;59.942;30.472;2023-03-14T03:41:08;1.50;;;1.40;;
29402;SDS011;16382;59.942;30.472;2023-03-14T03:43:38;1.95;;;1.75;;
29402;SDS011;16382;59.942;30.472;2023-03-14T03:46:08;1.73;;;1.50;;
29402;SDS011;16382;59.942;30.472;2023-03-14T03:48:37;1.83;;;1.73;;
29402;SDS011;16382;59.942;30.472;2023-03-14T03:51:05;4.78;;;2.25;;
29402;SDS011;16382;59.942;30.472;2023-03-14T03:53:35;4.13;;;2.50;;
29402;SDS011;16382;59.942;30.472;2023-03-14T03:56:10;1.50;;;1.40;;
29402;SDS011;16382;59.942;30.472;2023-03-14T03:58:39;4.60;;;1.80;;
29402;SDS011;16382;59.942;30.472;2023-03-14T04:01:07;4.30;;;1.77;;
29402;SDS011;16382;59.942;30.472;2023-03-14T04:03:38;2.97;;;1.80;;
29402;SDS011;16382;59.942;30.472;2023-03-14T04:06:08;6.72;;;1.90;;
29402;SDS011;16382;59.942;30.472;2023-03-14T04:08:38;2.05;;;1.80;;
29402;SDS011;16382;59.942;30.472;2023-03-14T04:11:15;2.58;;;1.70;;
29402;SDS011;16382;59.942;30.472;2023-03-14T04:14:13;5.20;;;1.80;;
29402;SDS011;16382;59.942;30.472;2023-03-14T04:16:40;4.97;;;2.63;;
29402;SDS011;16382;59.942;30.472;2023-03-14T04:19:14;3.92;;;2.83;;
29402;SDS011;16382;59.942;30.472;2023-03-14T04:21:42;1.52;;;1.42;;
29402;SDS011;16382;59.942;30.472;2023-03-14T04:24:13;1.95;;;1.77;;
29402;SDS011;16382;59.942;30.472;2023-03-14T04:26:46;4.97;;;1.48;;
29402;SDS011;16382;59.942;30.472;2023-03-14T04:29:14;3.58;;;2.53;;
29402;SDS011;16382;59.942;30.472;2023-03-14T04:31:43;1.50;;;1.40;;
29402;SDS011;16382;59.942;30.472;2023-03-14T04:34:11;3.45;;;1.40;;
29402;SDS011;16382;59.942;30.472;2023-03-14T04:36:47;2.78;;;1.70;;
29402;SDS011;16382;59.942;30.472;2023-03-14T04:39:19;1.60;;;1.30;;
29402;SDS011;16382;59.942;30.472;2023-03-14T04:41:55;2.03;;;1.60;;
29402;SDS011;16382;59.942;30.472;2023-03-14T04:44:24;5.88;;;2.70;;
29402;SDS011;16382;59.942;30.472;2023-03-14T04:46:59;4.95;;;1.80;;
29402;SDS011;16382;59.942;30.472;2023-03-14T04:49:27;3.13;;;2.03;;
29402;SDS011;16382;59.942;30.472;2023-03-14T04:52:10;2.20;;;1.73;;
29402;SDS011;16382;59.942;30.472;2023-03-14T04:54:49;3.75;;;1.70;;
29402;SDS011;16382;59.942;30.472;2023-03-14T04:57:32;5.85;;;2.10;;
29402;SDS011;16382;59.942;30.472;2023-03-14T05:00:12;3.88;;;1.52;;
29402;SDS011;16382;59.942;30.472;2023-03-14T05:03:05;1.80;;;1.20;;
29402;SDS011;16382;59.942;30.472;2023-03-14T05:05:53;2.35;;;1.88;;
29402;SDS011;16382;59.942;30.472;2023-03-14T05:09:03;1.75;;;1.20;;
29402;SDS011;16382;59.942;30.472;2023-03-14T05:11:58;1.30;;;1.20;;
29402;SDS011;16382;59.942;30.472;2023-03-14T05:15:04;4.00;;;1.40;;
29402;SDS011;16382;59.942;30.472;2023-03-14T05:18:11;3.72;;;1.65;;
29402;SDS011;16382;59.942;30.472;2023-03-14T05:21:02;2.45;;;1.42;;
29402;SDS011;16382;59.942;30.472;2023-03-14T05:23:49;1.50;;;1.30;;
29402;SDS011;16382;59.942;30.472;2023-03-14T05:26:32;2.05;;;0.95;;
29402;SDS011;16382;59.942;30.472;2023-03-14T05:29:20;4.88;;;1.25;;
29402;SDS011;16382;59.942;30.472;2023-03-14T05:32:17;6.05;;;1.40;;
29402;SDS011;16382;59.942;30.472;2023-03-14T05:35:05;3.90;;;1.48;;
29402;SDS011;16382;59.942;30.472;2023-03-14T05:37:51;6.35;;;1.30;;
29402;SDS011;16382;59.942;30.472;2023-03-14T05:40:21;3.20;;;1.23;;
29402;SDS011;16382;59.942;30.472;2023-03-14T05:43:06;4.20;;;1.58;;
29402;SDS011;16382;59.942;30.472;2023-03-14T05:45:53;1.63;;;1.45;;
29402;SDS011;16382;59.942;30.472;2023-03-14T05:48:30;5.65;;;1.42;;
29402;SDS011;16382;59.942;30.472;2023-03-14T05:51:29;1.40;;;1.20;;
29402;SDS011;16382;59.942;30.472;2023-03-14T05:54:05;0.77;;;0.77;;
29402;SDS011;16382;59.942;30.472;2023-03-14T05:56:56;2.17;;;1.20;;
29402;SDS011;16382;59.942;30.472;2023-03-14T05:59:46;1.38;;;1.27;;
29402;SDS011;16382;59.942;30.472;2023-03-14T06:02:38;6.47;;;1.50;;
29402;SDS011;16382;59.942;30.472;2023-03-14T06:05:16;3.40;;;1.60;;
29402;SDS011;16382;59.942;30.472;2023-03-14T06:07:45;3.10;;;1.13;;
29402;SDS011;16382;59.942;30.472;2023-03-14T06:10:12;2.20;;;1.33;;
29402;SDS011;16382;59.942;30.472;2023-03-14T06:12:40;3.42;;;1.70;;
29402;SDS011;16382;59.942;30.472;2023-03-14T06:15:09;2.45;;;1.92;;
29402;SDS011;16382;59.942;30.472;2023-03-14T06:17:38;2.55;;;1.50;;
29402;SDS011;16382;59.942;30.472;2023-03-14T06:20:10;3.83;;;1.83;;
29402;SDS011;16382;59.942;30.472;2023-03-14T06:22:38;4.30;;;1.88;;
29402;SDS011;16382;59.942;30.472;2023-03-14T06:25:08;10.75;;;2.17;;
29402;SDS011;16382;59.942;30.472;2023-03-14T06:27:36;3.67;;;1.85;;
29402;SDS011;16382;59.942;30.472;2023-03-14T06:30:04;3.97;;;1.88;;
29402;SDS011;16382;59.942;30.472;2023-03-14T06:32:35;5.50;;;2.22;;
29402;SDS011;16382;59.942;30.472;2023-03-14T06:35:07;3.47;;;1.90;;
29402;SDS011;16382;59.942;30.472;2023-03-14T06:37:39;2.30;;;1.90;;
29402;SDS011;16382;59.942;30.472;2023-03-14T06:40:07;7.70;;;2.30;;
29402;SDS011;16382;59.942;30.472;2023-03-14T06:42:54;3.50;;;2.47;;
29402;SDS011;16382;59.942;30.472;2023-03-14T06:45:23;3.58;;;2.20;;
29402;SDS011;16382;59.942;30.472;2023-03-14T06:47:53;2.33;;;1.70;;
29402;SDS011;16382;59.942;30.472;2023-03-14T06:50:25;3.30;;;1.80;;
29402;SDS011;16382;59.942;30.472;2023-03-14T06:52:58;3.35;;;2.53;;
29402;SDS011;16382;59.942;30.472;2023-03-14T06:55:27;3.97;;;1.85;;
29402;SDS011;16382;59.942;30.472;2023-03-14T06:57:54;3.22;;;2.67;;
29402;SDS011;16382;59.942;30.472;2023-03-14T07:00:22;8.63;;;2.40;;
29402;SDS011;16382;59.942;30.472;2023-03-14T07:02:55;2.05;;;1.83;;
29402;SDS011;16382;59.942;30.472;2023-03-14T07:05:29;3.70;;;1.98;;
29402;SDS011;16382;59.942;30.472;2023-03-14T07:07:56;2.05;;;1.90;;
29402;SDS011;16382;59.942;30.472;2023-03-14T07:10:24;2.38;;;2.17;;
29402;SDS011;16382;59.942;30.472;2023-03-14T07:12:52;2.97;;;2.05;;
29402;SDS011;16382;59.942;30.472;2023-03-14T07:15:22;2.10;;;1.80;;
29402;SDS011;16382;59.942;30.472;2023-03-14T07:20:25;3.20;;;2.58;;
29402;SDS011;16382;59.942;30.472;2023-03-14T07:22:54;4.50;;;2.30;;
29402;SDS011;16382;59.942;30.472;2023-03-14T07:25:43;3.72;;;2.50;;
29402;SDS011;16382;59.942;30.472;2023-03-14T07:28:12;4.40;;;2.75;;
29402;SDS011;16382;59.942;30.472;2023-03-14T07:30:41;4.18;;;2.45;;
29402;SDS011;16382;59.942;30.472;2023-03-14T07:33:17;2.60;;;2.33;;
29402;SDS011;16382;59.942;30.472;2023-03-14T07:35:46;4.85;;;2.67;;
29402;SDS011;16382;59.942;30.472;2023-03-14T07:38:14;4.43;;;3.22;;
29402;SDS011;16382;59.942;30.472;2023-03-14T07:40:58;3.97;;;3.08;;
29402;SDS011;16382;59.942;30.472;2023-03-14T07:43:28;4.20;;;2.97;;
29402;SDS011;16382;59.942;30.472;2023-03-14T07:45:59;5.25;;;3.45;;
29402;SDS011;16382;59.942;30.472;2023-03-14T07:48:28;4.38;;;2.92;;
29402;SDS011;16382;59.942;30.472;2023-03-14T07:50:56;4.25;;;3.17;;
29402;SDS011;16382;59.942;30.472;2023-03-14T07:53:24;4.82;;;3.25;;
29402;SDS011;16382;59.942;30.472;2023-03-14T07:55:52;5.68;;;3.10;;
29402;SDS011;16382;59.942;30.472;2023-03-14T07:58:21;9.13;;;3.78;;
29402;SDS011;16382;59.942;30.472;2023-03-14T08:00:48;9.10;;;4.05;;
29402;SDS011;16382;59.942;30.472;2023-03-14T08:03:16;4.82;;;3.45;;
29402;SDS011;16382;59.942;30.472;2023-03-14T08:05:48;6.65;;;4.10;;
29402;SDS011;16382;59.942;30.472;2023-03-14T08:08:17;5.28;;;3.72;;
29402;SDS011;16382;59.942;30.472;2023-03-14T08:10:45;7.18;;;4.57;;
29402;SDS011;16382;59.942;30.472;2023-03-14T08:16:46;7.93;;;4.05;;
29402;SDS011;16382;59.942;30.472;2023-03-14T08:19:14;8.00;;;4.60;;
29402;SDS011;16382;59.942;30.472;2023-03-14T08:21:42;6.13;;;4.07;;
29402;SDS011;16382;59.942;30.472;2023-03-14T08:24:10;6.97;;;4.75;;
29402;SDS011;16382;59.942;30.472;2023-03-14T08:26:38;6.40;;;3.88;;
29402;SDS011;16382;59.942;30.472;2023-03-14T08:29:05;5.60;;;4.68;;
29402;SDS011;16382;59.942;30.472;2023-03-14T08:31:33;7.55;;;4.50;;
29402;SDS011;16382;59.942;30.472;2023-03-14T08:34:01;11.60;;;5.60;;
29402;SDS011;16382;59.942;30.472;2023-03-14T08:36:31;11.23;;;5.22;;
29402;SDS011;16382;59.942;30.472;2023-03-14T08:39:01;10.45;;;5.20;;
29402;SDS011;16382;59.942;30.472;2023-03-14T08:41:32;10.77;;;4.70;;
29402;SDS011;16382;59.942;30.472;2023-03-14T08:44:05;7.47;;;4.22;;
29402;SDS011;16382;59.942;30.472;2023-03-14T08:46:33;7.32;;;4.75;;
29402;SDS011;16382;59.942;30.472;2023-03-14T08:49:00;7.30;;;5.15;;
29402;SDS011;16382;59.942;30.472;2023-03-14T08:51:28;7.68;;;5.25;;
29402;SDS011;16382;59.942;30.472;2023-03-14T08:53:56;11.38;;;4.95;;
29402;SDS011;16382;59.942;30.472;2023-03-14T08:56:25;8.52;;;4.72;;
29402;SDS011;16382;59.942;30.472;2023-03-14T08:58:52;9.95;;;5.55;;
29402;SDS011;16382;59.942;30.472;2023-03-14T09:01:20;10.30;;;5.45;;
29402;SDS011;16382;59.942;30.472;2023-03-14T09:03:50;9.25;;;5.70;;
29402;SDS011;16382;59.942;30.472;2023-03-14T09:06:18;8.85;;;4.82;;
29402;SDS011;16382;59.942;30.472;2023-03-14T09:08:46;8.05;;;5.05;;
29402;SDS011;16382;59.942;30.472;2023-03-14T09:11:13;11.57;;;6.07;;
29402;SDS011;16382;59.942;30.472;2023-03-14T09:13:46;11.05;;;5.53;;
29402;SDS011;16382;59.942;30.472;2023-03-14T09:16:14;12.82;;;5.78;;
29402;SDS011;16382;59.942;30.472;2023-03-14T09:18:41;12.88;;;5.63;;
29402;SDS011;16382;59.942;30.472;2023-03-14T09:21:09;14.38;;;6.10;;
29402;SDS011;16382;59.942;30.472;2023-03-14T09:23:36;14.80;;;6.93;;
29402;SDS011;16382;59.942;30.472;2023-03-14T09:26:05;10.65;;;5.63;;
29402;SDS011;16382;59.942;30.472;2023-03-14T09:28:34;12.77;;;6.00;;
29402;SDS011;16382;59.942;30.472;2023-03-14T09:31:06;11.50;;;5.55;;
29402;SDS011;16382;59.942;30.472;2023-03-14T09:33:35;11.45;;;5.88;;
29402;SDS011;16382;59.942;30.472;2023-03-14T09:36:03;8.45;;;4.90;;
29402;SDS011;16382;59.942;30.472;2023-03-14T09:38:33;14.73;;;6.68;;
29402;SDS011;16382;59.942;30.472;2023-03-14T09:41:01;15.00;;;6.40;;
29402;SDS011;16382;59.942;30.472;2023-03-14T09:43:39;10.68;;;6.30;;
29402;SDS011;16382;59.942;30.472;2023-03-14T09:46:10;14.68;;;6.55;;
29402;SDS011;16382;59.942;30.472;2023-03-14T09:48:38;12.55;;;7.93;;
29402;SDS011;16382;59.942;30.472;2023-03-14T09:51:10;12.95;;;6.97;;
29402;SDS011;16382;59.942;30.472;2023-03-14T09:53:43;11.93;;;5.78;;
29402;SDS011;16382;59.942;30.472;2023-03-14T09:56:13;13.30;;;7.05;;
29402;SDS011;16382;59.942;30.472;2023-03-14T09:58:45;11.75;;;6.10;;
29402;SDS011;16382;59.942;30.472;2023-03-14T10:01:22;14.88;;;7.55;;
29402;SDS011;16382;59.942;30.472;2023-03-14T10:03:53;17.20;;;7.53;;
29402;SDS011;16382;59.942;30.472;2023-03-14T10:06:24;24.27;;;11.20;;
29402;SDS011;16382;59.942;30.472;2023-03-14T10:08:54;19.38;;;8.43;;
29402;SDS011;16382;59.942;30.472;2023-03-14T10:11:23;17.30;;;8.35;;
29402;SDS011;16382;59.942;30.472;2023-03-14T10:14:02;20.25;;;9.52;;
29402;SDS011;16382;59.942;30.472;2023-03-14T10:16:36;14.55;;;8.85;;
29402;SDS011;16382;59.942;30.472;2023-03-14T10:19:09;20.60;;;9.50;;
29402;SDS011;16382;59.942;30.472;2023-03-14T10:21:39;14.05;;;6.35;;
29402;SDS011;16382;59.942;30.472;2023-03-14T10:24:10;17.50;;;7.35;;
29402;SDS011;16382;59.942;30.472;2023-03-14T10:26:52;11.32;;;7.35;;
29402;SDS011;16382;59.942;30.472;2023-03-14T10:29:20;20.85;;;9.23;;
29402;SDS011;16382;59.942;30.472;2023-03-14T10:31:54;24.75;;;11.35;;
29402;SDS011;16382;59.942;30.472;2023-03-14T10:34:27;22.23;;;11.25;;
29402;SDS011;16382;59.942;30.472;2023-03-14T10:36:58;17.73;;;8.15;;
29402;SDS011;16382;59.942;30.472;2023-03-14T10:39:35;20.27;;;10.75;;
29402;SDS011;16382;59.942;30.472;2023-03-14T10:42:12;19.42;;;9.07;;
29402;SDS011;16382;59.942;30.472;2023-03-14T10:44:47;18.75;;;8.93;;
29402;SDS011;16382;59.942;30.472;2023-03-14T10:47:23;17.48;;;8.80;;
29402;SDS011;16382;59.942;30.472;2023-03-14T10:49:54;16.67;;;7.00;;
29402;SDS011;16382;59.942;30.472;2023-03-14T10:52:25;18.92;;;9.20;;
29402;SDS011;16382;59.942;30.472;2023-03-14T10:54:56;13.80;;;7.03;;
29402;SDS011;16382;59.942;30.472;2023-03-14T10:57:26;12.50;;;6.60;;
29402;SDS011;16382;59.942;30.472;2023-03-14T10:59:54;12.60;;;7.30;;
29402;SDS011;16382;59.942;30.472;2023-03-14T11:02:31;14.90;;;7.20;;
29402;SDS011;16382;59.942;30.472;2023-03-14T11:05:13;10.73;;;5.63;;
29402;SDS011;16382;59.942;30.472;2023-03-14T11:07:51;10.80;;;5.95;;
29402;SDS011;16382;59.942;30.472;2023-03-14T11:10:23;12.95;;;6.20;;
29402;SDS011;16382;59.942;30.472;2023-03-14T11:13:01;15.23;;;5.97;;
29402;SDS011;16382;59.942;30.472;2023-03-14T11:15:40;12.65;;;6.38;;
29402;SDS011;16382;59.942;30.472;2023-03-14T11:18:21;13.95;;;6.35;;
29402;SDS011;16382;59.942;30.472;2023-03-14T11:21:29;16.83;;;6.97;;
29402;SDS011;16382;59.942;30.472;2023-03-14T11:24:08;15.95;;;8.05;;
29402;SDS011;16382;59.942;30.472;2023-03-14T11:27:00;14.75;;;7.60;;
29402;SDS011;16382;59.942;30.472;2023-03-14T11:32:19;15.27;;;7.18;;
29402;SDS011;16382;59.942;30.472;2023-03-14T11:35:05;13.05;;;7.03;;
29402;SDS011;16382;59.942;30.472;2023-03-14T11:37:45;15.52;;;6.53;;
29402;SDS011;16382;59.942;30.472;2023-03-14T11:40:20;13.07;;;6.22;;
29402;SDS011;16382;59.942;30.472;2023-03-14T11:42:53;11.52;;;6.35;;
29402;SDS011;16382;59.942;30.472;2023-03-14T11:45:29;13.25;;;6.30;;
29402;SDS011;16382;59.942;30.472;2023-03-14T11:48:07;8.73;;;5.13;;
29402;SDS011;16382;59.942;30.472;2023-03-14T11:50:49;11.75;;;6.60;;
29402;SDS011;16382;59.942;30.472;2023-03-14T11:53:22;10.07;;;6.35;;
29402;SDS011;16382;59.942;30.472;2023-03-14T11:56:08;16.48;;;6.85;;
29402;SDS011;16382;59.942;30.472;2023-03-14T11:58:41;16.10;;;8.27;;
29402;SDS011;16382;59.942;30.472;2023-03-14T12:01:18;16.95;;;7.55;;
29402;SDS011;16382;59.942;30.472;2023-03-14T12:03:51;13.68;;;6.57;;
29402;SDS011;16382;59.942;30.472;2023-03-14T12:06:29;14.27;;;7.20;;
29402;SDS011;16382;59.942;30.472;2023-03-14T12:09:04;12.82;;;6.97;;
29402;SDS011;16382;59.942;30.472;2023-03-14T12:11:34;15.10;;;6.82;;
29402;SDS011;16382;59.942;30.472;2023-03-14T12:14:17;14.05;;;6.47;;
29402;SDS011;16382;59.942;30.472;2023-03-14T12:16:48;10.85;;;6.50;;
29402;SDS011;16382;59.942;30.472;2023-03-14T12:19:27;10.88;;;6.30;;
29402;SDS011;16382;59.942;30.472;2023-03-14T12:22:12;16.70;;;7.95;;
29402;SDS011;16382;59.942;30.472;2023-03-14T12:24:58;17.13;;;8.45;;
29402;SDS011;16382;59.942;30.472;2023-03-14T12:27:47;16.13;;;7.95;;
29402;SDS011;16382;59.942;30.472;2023-03-14T12:30:46;14.30;;;6.95;;
29402;SDS011;16382;59.942;30.472;2023-03-14T12:36:04;15.88;;;6.20;;
29402;SDS011;16382;59.942;30.472;2023-03-14T12:38:51;14.15;;;6.78;;
29402;SDS011;16382;59.942;30.472;2023-03-14T12:41:35;16.27;;;7.35;;
29402;SDS011;16382;59.942;30.472;2023-03-14T12:50:24;14.43;;;7.10;;
29402;SDS011;16382;59.942;30.472;2023-03-14T12:56:15;14.60;;;8.52;;
29402;SDS011;16382;59.942;30.472;2023-03-14T12:59:03;18.20;;;8.82;;
29402;SDS011;16382;59.942;30.472;2023-03-14T13:01:47;15.77;;;7.43;;
29402;SDS011;16382;59.942;30.472;2023-03-14T13:04:26;15.85;;;8.30;;
29402;SDS011;16382;59.942;30.472;2023-03-14T13:06:59;20.27;;;7.55;;
29402;SDS011;16382;59.942;30.472;2023-03-14T13:12:37;14.60;;;7.80;;
29402;SDS011;16382;59.942;30.472;2023-03-14T13:15:15;13.55;;;7.38;;
29402;SDS011;16382;59.942;30.472;2023-03-14T13:17:59;18.25;;;8.23;;
29402;SDS011;16382;59.942;30.472;2023-03-14T13:20:35;15.27;;;8.15;;
29402;SDS011;16382;59.942;30.472;2023-03-14T13:23:18;16.50;;;8.02;;
29402;SDS011;16382;59.942;30.472;2023-03-14T13:25:49;19.42;;;9.57;;
29402;SDS011;16382;59.942;30.472;2023-03-14T13:28:18;20.30;;;8.48;;
29402;SDS011;16382;59.942;30.472;2023-03-14T13:30:47;16.60;;;7.32;;
29402;SDS011;16382;59.942;30.472;2023-03-14T13:33:25;14.38;;;9.05;;
29402;SDS011;16382;59.942;30.472;2023-03-14T13:35:54;19.58;;;8.35;;
29402;SDS011;16382;59.942;30.472;2023-03-14T13:38:24;18.30;;;8.30;;
29402;SDS011;16382;59.942;30.472;2023-03-14T13:40:55;16.17;;;8.15;;
29402;SDS011;16382;59.942;30.472;2023-03-14T13:43:27;14.23;;;7.97;;
29402;SDS011;16382;59.942;30.472;2023-03-14T13:46:00;23.13;;;10.35;;
29402;SDS011;16382;59.942;30.472;2023-03-14T13:48:32;16.88;;;7.93;;
29402;SDS011;16382;59.942;30.472;2023-03-14T13:51:06;16.42;;;8.52;;
29402;SDS011;16382;59.942;30.472;2023-03-14T13:53:51;17.08;;;8.18;;
29402;SDS011;16382;59.942;30.472;2023-03-14T13:56:21;16.88;;;8.52;;
29402;SDS011;16382;59.942;30.472;2023-03-14T13:58:52;25.55;;;9.68;;
29402;SDS011;16382;59.942;30.472;2023-03-14T14:01:21;14.43;;;8.27;;
29402;SDS011;16382;59.942;30.472;2023-03-14T14:03:53;16.35;;;8.68;;
29402;SDS011;16382;59.942;30.472;2023-03-14T14:06:25;19.50;;;8.82;;
29402;SDS011;16382;59.942;30.472;2023-03-14T14:09:00;17.25;;;8.05;;
29402;SDS011;16382;59.942;30.472;2023-03-14T14:11:38;21.02;;;8.98;;
29402;SDS011;16382;59.942;30.472;2023-03-14T14:14:13;12.15;;;8.18;;
29402;SDS011;16382;59.942;30.472;2023-03-14T14:16:47;19.48;;;8.57;;
29402;SDS011;16382;59.942;30.472;2023-03-14T14:19:17;20.42;;;10.18;;
29402;SDS011;16382;59.942;30.472;2023-03-14T14:21:48;23.02;;;8.48;;
29402;SDS011;16382;59.942;30.472;2023-03-14T14:24:28;18.48;;;8.82;;
29402;SDS011;16382;59.942;30.472;2023-03-14T14:27:08;16.42;;;8.80;;
29402;SDS011;16382;59.942;30.472;2023-03-14T14:29:56;17.35;;;8.50;;
29402;SDS011;16382;59.942;30.472;2023-03-14T14:32:33;20.92;;;10.35;;
29402;SDS011;16382;59.942;30.472;2023-03-14T14:35:03;18.65;;;7.53;;
29402;SDS011;16382;59.942;30.472;2023-03-14T14:37:32;15.18;;;8.82;;
29402;SDS011;16382;59.942;30.472;2023-03-14T14:40:06;14.15;;;8.85;;
29402;SDS011;16382;59.942;30.472;2023-03-14T14:42:42;14.65;;;8.15;;
29402;SDS011;16382;59.942;30.472;2023-03-14T14:45:14;14.02;;;8.05;;
29402;SDS011;16382;59.942;30.472;2023-03-14T14:47:49;17.35;;;8.02;;
29402;SDS011;16382;59.942;30.472;2023-03-14T14:50:25;18.08;;;9.30;;
29402;SDS011;16382;59.942;30.472;2023-03-14T14:52:59;14.85;;;8.88;;
29402;SDS011;16382;59.942;30.472;2023-03-14T14:55:30;19.73;;;9.95;;
29402;SDS011;16382;59.942;30.472;2023-03-14T14:58:10;16.65;;;7.97;;
29402;SDS011;16382;59.942;30.472;2023-03-14T15:00:50;17.25;;;9.50;;
29402;SDS011;16382;59.942;30.472;2023-03-14T15:03:23;21.60;;;8.80;;
29402;SDS011;16382;59.942;30.472;2023-03-14T15:05:58;21.57;;;9.57;;
29402;SDS011;16382;59.942;30.472;2023-03-14T15:08:26;17.23;;;8.48;;
29402;SDS011;16382;59.942;30.472;2023-03-14T15:10:54;15.35;;;8.93;;
29402;SDS011;16382;59.942;30.472;2023-03-14T15:13:22;15.32;;;8.30;;
29402;SDS011;16382;59.942;30.472;2023-03-14T15:16:00;15.73;;;7.82;;
29402;SDS011;16382;59.942;30.472;2023-03-14T15:18:28;17.75;;;8.07;;
29402;SDS011;16382;59.942;30.472;2023-03-14T15:20:56;15.05;;;7.65;;
29402;SDS011;16382;59.942;30.472;2023-03-14T15:23:24;18.85;;;9.32;;
29402;SDS011;16382;59.942;30.472;2023-03-14T15:25:51;13.20;;;8.82;;
29402;SDS011;16382;59.942;30.472;2023-03-14T15:28:19;20.65;;;8.63;;
29402;SDS011;16382;59.942;30.472;2023-03-14T15:30:49;15.65;;;9.30;;
29402;SDS011;16382;59.942;30.472;2023-03-14T15:33:20;18.58;;;9.48;;